createdAt,value
2023-04-17T00:02:00.549Z,8.25
2023-04-17T00:04:29.816Z,8.23
2023-04-17T00:06:59.772Z,8.22
2023-04-17T00:09:36.198Z,8.23
2023-04-17T00:12:05.943Z,8.23
2023-04-17T00:14:34.750Z,8.18
2023-04-17T00:17:01.211Z,8.18
2023-04-17T00:19:27.659Z,8.16
2023-04-17T00:21:54.100Z,8.14
2023-04-17T00:24:20.653Z,8.13
2023-04-17T00:26:49.701Z,8.12
2023-04-17T00:29:16.231Z,8.13
2023-04-17T00:31:43.488Z,8.12
2023-04-17T00:34:10.084Z,8.12
2023-04-17T00:36:36.606Z,8.10
2023-04-17T00:39:03.140Z,8.09
2023-04-17T00:41:29.598Z,8.08
2023-04-17T00:43:56.156Z,8.07
2023-04-17T00:46:25.714Z,8.04
2023-04-17T00:48:52.559Z,8.04
2023-04-17T00:51:19.170Z,8.04
2023-04-17T00:53:46.055Z,8.04
2023-04-17T00:56:16.815Z,8.03
2023-04-17T00:58:43.932Z,8.02
2023-04-17T01:01:12.189Z,8.00
2023-04-17T01:03:38.801Z,8.01
2023-04-17T01:06:06.170Z,8.01
2023-04-17T01:08:41.560Z,8.01
2023-04-17T01:11:12.116Z,8.01
2023-04-17T01:13:48.816Z,8.00
2023-04-17T01:16:21.806Z,8.02
2023-04-17T01:18:48.448Z,8.05
2023-04-17T01:21:15.369Z,8.09
2023-04-17T01:23:53.105Z,8.09
2023-04-17T01:26:24.519Z,8.03
2023-04-17T01:28:56.618Z,7.99
2023-04-17T01:31:28.190Z,7.93
2023-04-17T01:33:54.881Z,7.91
2023-04-17T01:36:21.589Z,7.90
2023-04-17T01:38:48.170Z,7.88
2023-04-17T01:41:14.682Z,7.82
2023-04-17T01:43:44.077Z,7.81
2023-04-17T01:46:12.720Z,7.75
2023-04-17T01:48:39.799Z,7.74
2023-04-17T01:51:06.382Z,7.73
2023-04-17T01:53:33.874Z,7.74
2023-04-17T01:56:01.966Z,7.71
2023-04-17T01:58:28.825Z,7.68
2023-04-17T02:00:55.492Z,7.69
2023-04-17T02:03:24.417Z,7.71
2023-04-17T02:05:53.570Z,7.68
2023-04-17T02:08:20.126Z,7.62
2023-04-17T02:10:46.608Z,7.59
2023-04-17T02:13:13.293Z,7.51
2023-04-17T02:15:40.329Z,7.50
2023-04-17T02:18:07.375Z,7.43
2023-04-17T02:20:34.656Z,7.44
2023-04-17T02:23:02.579Z,7.37
2023-04-17T02:25:29.682Z,7.38
2023-04-17T02:27:56.782Z,7.32
2023-04-17T02:30:24.181Z,7.31
2023-04-17T02:32:56.208Z,7.33
2023-04-17T02:35:28.049Z,7.37
2023-04-17T02:37:54.816Z,7.44
2023-04-17T02:40:21.358Z,7.44
2023-04-17T02:42:47.846Z,7.37
2023-04-17T02:45:14.322Z,7.29
2023-04-17T02:47:41.308Z,7.32
2023-04-17T02:50:09.069Z,7.25
2023-04-17T02:52:35.548Z,7.27
2023-04-17T02:55:02.088Z,7.27
2023-04-17T02:57:28.701Z,7.26
2023-04-17T02:59:55.330Z,7.25
2023-04-17T03:02:22.213Z,7.24
2023-04-17T03:04:50.233Z,7.26
2023-04-17T03:07:18.768Z,7.25
2023-04-17T03:09:48.955Z,7.30
2023-04-17T03:12:17.131Z,7.31
2023-04-17T03:14:44.217Z,7.27
2023-04-17T03:17:12.120Z,7.28
2023-04-17T03:19:38.560Z,7.29
2023-04-17T03:22:05.876Z,7.31
2023-04-17T03:24:33.325Z,7.30
2023-04-17T03:27:03.731Z,7.27
2023-04-17T03:29:30.257Z,7.28
2023-04-17T03:31:56.757Z,7.27
2023-04-17T03:34:23.498Z,7.24
2023-04-17T03:36:49.959Z,7.16
2023-04-17T03:39:19.017Z,7.18
2023-04-17T03:41:45.450Z,7.17
2023-04-17T03:44:12.599Z,7.10
2023-04-17T03:46:39.155Z,7.10
2023-04-17T03:49:06.237Z,7.12
2023-04-17T03:51:32.727Z,7.18
2023-04-17T03:54:02.463Z,7.14
2023-04-17T03:56:28.926Z,7.15
2023-04-17T03:58:55.447Z,7.21
2023-04-17T04:01:22.373Z,7.18
2023-04-17T04:03:49.336Z,7.18
2023-04-17T04:06:20.200Z,7.18
2023-04-17T04:08:46.833Z,7.20
2023-04-17T04:11:13.916Z,7.14
2023-04-17T04:13:40.823Z,7.16
2023-04-17T04:16:08.274Z,7.14
2023-04-17T04:18:36.167Z,7.13
2023-04-17T04:21:02.708Z,7.09
2023-04-17T04:23:30.579Z,7.08
2023-04-17T04:25:57.973Z,7.04
2023-04-17T04:28:24.515Z,7.02
2023-04-17T04:30:53.501Z,7.03
2023-04-17T04:33:20.898Z,7.01
2023-04-17T04:35:48.518Z,7.01
2023-04-17T04:38:20.061Z,6.99
2023-04-17T04:40:50.017Z,7.00
2023-04-17T04:43:16.656Z,7.03
2023-04-17T04:45:43.311Z,7.03
2023-04-17T04:48:09.829Z,7.00
2023-04-17T04:50:36.458Z,6.98
2023-04-17T04:53:02.951Z,6.96
2023-04-17T04:55:30.774Z,6.94
2023-04-17T04:57:57.588Z,7.00
2023-04-17T05:00:24.872Z,7.02
2023-04-17T05:02:51.437Z,7.00
2023-04-17T05:05:18.190Z,6.94
2023-04-17T05:07:44.648Z,6.97
2023-04-17T05:10:11.206Z,7.03
2023-04-17T05:12:37.842Z,7.06
2023-04-17T05:15:04.794Z,7.07
2023-04-17T05:17:31.371Z,7.04
2023-04-17T05:19:57.952Z,7.08
2023-04-17T05:22:27.584Z,7.04
2023-04-17T05:24:54.163Z,7.00
2023-04-17T05:27:20.696Z,6.98
2023-04-17T05:29:47.253Z,7.06
2023-04-17T05:32:17.185Z,7.06
2023-04-17T05:34:43.649Z,7.10
2023-04-17T05:37:10.093Z,7.12
2023-04-17T05:39:36.636Z,7.14
2023-04-17T05:42:03.138Z,7.17
2023-04-17T05:44:30.172Z,7.23
2023-04-17T05:46:57.387Z,7.25
2023-04-17T05:49:23.918Z,7.36
2023-04-17T05:51:52.708Z,7.43
2023-04-17T05:54:19.175Z,7.56
2023-04-17T05:56:45.760Z,7.48
2023-04-17T05:59:12.447Z,7.45
2023-04-17T06:01:39.593Z,7.46
2023-04-17T06:04:06.621Z,7.50
2023-04-17T06:06:33.426Z,7.60
2023-04-17T06:08:59.857Z,7.61
2023-04-17T06:11:27.173Z,7.69
2023-04-17T06:13:53.710Z,7.74
2023-04-17T06:16:20.472Z,7.78
2023-04-17T06:18:49.726Z,7.85
2023-04-17T06:21:18.537Z,7.93
2023-04-17T06:23:44.982Z,7.89
2023-04-17T06:26:12.292Z,7.87
2023-04-17T06:28:38.785Z,7.84
2023-04-17T06:31:05.450Z,7.72
2023-04-17T06:33:32.499Z,7.57
2023-04-17T06:35:58.961Z,7.81
2023-04-17T06:38:25.424Z,8.02
2023-04-17T06:40:52.839Z,8.12
2023-04-17T06:43:19.365Z,8.10
2023-04-17T06:45:45.873Z,8.09
2023-04-17T06:48:12.346Z,8.08
2023-04-17T06:50:38.896Z,8.05
2023-04-17T06:53:05.732Z,8.11
2023-04-17T06:55:32.235Z,7.99
2023-04-17T06:57:58.714Z,7.96
2023-04-17T07:00:25.365Z,8.02
2023-04-17T07:02:52.009Z,8.12
2023-04-17T07:05:18.597Z,8.11
2023-04-17T07:07:45.209Z,8.14
2023-04-17T07:10:11.738Z,8.13
2023-04-17T07:12:38.241Z,8.10
2023-04-17T07:15:05.094Z,8.13
2023-04-17T07:17:31.704Z,8.10
2023-04-17T07:19:58.161Z,8.26
2023-04-17T07:22:26.585Z,8.40
2023-04-17T07:24:53.754Z,8.60
2023-04-17T07:27:20.349Z,8.64
2023-04-17T07:29:52.823Z,8.63
2023-04-17T07:32:19.396Z,8.61
2023-04-17T07:34:45.989Z,8.57
2023-04-17T07:37:12.472Z,8.54
2023-04-17T07:39:39.014Z,8.62
2023-04-17T07:42:08.766Z,8.66
2023-04-17T07:44:35.488Z,8.74
2023-04-17T07:47:02.152Z,8.86
2023-04-17T07:49:28.789Z,9.03
2023-04-17T07:51:55.565Z,9.17
2023-04-17T07:54:22.043Z,9.19
2023-04-17T07:56:49.444Z,9.23
2023-04-17T07:59:19.037Z,9.04
2023-04-17T08:01:45.574Z,9.11
2023-04-17T08:04:15.516Z,9.22
2023-04-17T08:06:42.172Z,9.43
2023-04-17T08:09:08.635Z,9.51
2023-04-17T08:11:40.144Z,9.60
2023-04-17T08:14:12.810Z,9.63
2023-04-17T08:16:39.305Z,9.66
2023-04-17T08:19:05.880Z,9.52
2023-04-17T08:21:32.404Z,9.59
2023-04-17T08:23:59.036Z,9.76
2023-04-17T08:26:25.516Z,9.66
2023-04-17T08:28:53.728Z,9.45
2023-04-17T08:31:20.406Z,9.64
2023-04-17T08:33:46.920Z,9.72
2023-04-17T08:36:13.669Z,9.78
2023-04-17T08:38:42.036Z,9.67
2023-04-17T08:41:13.258Z,9.78
2023-04-17T08:43:40.272Z,9.69
2023-04-17T08:46:07.532Z,9.83
2023-04-17T08:48:34.191Z,9.83
2023-04-17T08:51:01.711Z,9.85
2023-04-17T08:53:28.220Z,10.09
2023-04-17T08:55:54.690Z,10.00
2023-04-17T08:58:28.448Z,9.91
2023-04-17T09:00:55.945Z,9.93
2023-04-17T09:03:22.553Z,10.02
2023-04-17T09:05:49.201Z,10.15
2023-04-17T09:08:20.769Z,10.10
2023-04-17T09:10:48.792Z,10.11
2023-04-17T09:13:20.877Z,10.09
2023-04-17T09:16:03.399Z,9.98
2023-04-17T09:18:31.474Z,10.18
2023-04-17T09:20:59.826Z,10.17
2023-04-17T09:23:45.838Z,10.42
2023-04-17T09:26:16.562Z,10.45
2023-04-17T09:29:14.604Z,10.41
2023-04-17T09:31:42.991Z,10.44
2023-04-17T09:34:15.280Z,10.53
2023-04-17T09:36:43.836Z,10.69
2023-04-17T09:39:23.804Z,10.62
2023-04-17T09:42:02.317Z,10.73
2023-04-17T09:44:30.329Z,10.82
2023-04-17T09:46:57.323Z,11.21
2023-04-17T09:49:52.829Z,11.26
2023-04-17T09:52:23.745Z,11.17
2023-04-17T09:54:51.308Z,11.26
2023-04-17T09:57:18.615Z,11.27
2023-04-17T09:59:48.047Z,11.29
2023-04-17T10:02:17.025Z,11.54
2023-04-17T10:04:45.150Z,11.79
2023-04-17T10:07:13.252Z,11.81
2023-04-17T10:09:45.636Z,11.84
2023-04-17T10:12:15.357Z,11.72
2023-04-17T10:14:46.586Z,11.90
2023-04-17T10:17:31.755Z,11.69
2023-04-17T10:20:23.120Z,11.82
2023-04-17T10:22:54.872Z,11.89
2023-04-17T10:25:28.214Z,12.09
2023-04-17T10:27:58.300Z,11.89
2023-04-17T10:30:44.913Z,12.04
2023-04-17T10:33:20.096Z,11.99
2023-04-17T10:35:46.779Z,11.99
2023-04-17T10:38:13.293Z,11.99
2023-04-17T10:40:43.060Z,12.17
2023-04-17T10:43:17.561Z,12.37
2023-04-17T10:46:12.880Z,12.26
2023-04-17T10:48:52.807Z,12.32
2023-04-17T10:51:28.910Z,12.42
2023-04-17T10:54:03.688Z,12.30
2023-04-17T10:56:40.641Z,12.50
2023-04-17T10:59:09.657Z,12.39
2023-04-17T11:01:48.578Z,12.25
2023-04-17T11:04:27.530Z,12.34
2023-04-17T11:06:55.933Z,12.39
2023-04-17T11:09:30.945Z,12.47
2023-04-17T11:12:03.706Z,12.50
2023-04-17T11:14:31.095Z,12.37
2023-04-17T11:16:57.759Z,12.57
2023-04-17T11:19:26.164Z,12.44
2023-04-17T11:21:54.650Z,12.65
2023-04-17T11:24:28.103Z,12.73
2023-04-17T11:26:56.709Z,12.68
2023-04-17T11:29:24.536Z,12.53
2023-04-17T11:31:53.794Z,12.69
2023-04-17T11:34:21.128Z,12.73
2023-04-17T11:36:54.863Z,12.47
2023-04-17T11:39:23.358Z,12.72
2023-04-17T11:41:51.919Z,12.68
2023-04-17T11:44:22.707Z,12.69
2023-04-17T11:46:51.260Z,12.84
2023-04-17T11:49:27.377Z,12.94
2023-04-17T11:51:59.246Z,12.92
2023-04-17T11:54:34.522Z,12.97
2023-04-17T11:57:07.008Z,12.93
2023-04-17T11:59:37.787Z,13.13
2023-04-17T12:02:08.301Z,13.01
2023-04-17T12:04:39.673Z,12.84
2023-04-17T12:07:11.279Z,12.87
2023-04-17T12:09:37.766Z,13.01
2023-04-17T12:12:06.416Z,12.96
2023-04-17T12:14:33.256Z,13.01
2023-04-17T12:16:59.868Z,13.03
2023-04-17T12:19:27.449Z,13.12
2023-04-17T12:21:54.616Z,13.12
2023-04-17T12:24:22.895Z,13.19
2023-04-17T12:26:53.445Z,13.29
2023-04-17T12:29:32.231Z,13.07
2023-04-17T12:32:07.415Z,12.76
2023-04-17T12:34:34.071Z,12.71
2023-04-17T12:37:01.125Z,12.58
2023-04-17T12:39:27.629Z,12.74
2023-04-17T12:41:54.089Z,12.77
2023-04-17T12:44:20.691Z,12.83
2023-04-17T12:46:47.178Z,12.91
2023-04-17T12:49:13.736Z,12.91
2023-04-17T12:51:41.208Z,13.01
2023-04-17T12:54:08.208Z,13.06
2023-04-17T12:56:34.896Z,13.00
2023-04-17T12:59:02.990Z,12.93
2023-04-17T13:01:32.944Z,13.15
2023-04-17T13:03:59.600Z,13.22
2023-04-17T13:06:28.033Z,12.94
2023-04-17T13:08:54.538Z,12.91
2023-04-17T13:11:23.440Z,12.83
2023-04-17T13:13:49.921Z,12.80
2023-04-17T13:16:16.457Z,12.61
2023-04-17T13:18:42.992Z,12.41
2023-04-17T13:21:09.515Z,12.33
2023-04-17T13:23:36.020Z,12.31
2023-04-17T13:26:02.481Z,12.41
2023-04-17T13:28:28.936Z,12.77
2023-04-17T13:30:55.828Z,13.04
2023-04-17T13:33:22.370Z,13.14
2023-04-17T13:35:53.181Z,13.05
2023-04-17T13:38:19.653Z,12.92
2023-04-17T13:40:46.206Z,12.77
2023-04-17T13:43:12.662Z,12.61
2023-04-17T13:45:39.161Z,12.51
2023-04-17T13:48:05.783Z,12.54
2023-04-17T13:50:32.371Z,12.46
2023-04-17T13:52:58.855Z,12.34
2023-04-17T13:55:25.412Z,12.12
2023-04-17T13:57:51.898Z,11.96
2023-04-17T14:00:18.891Z,11.98
2023-04-17T14:02:45.499Z,12.18
2023-04-17T14:05:12.278Z,12.26
2023-04-17T14:07:38.764Z,12.34
2023-04-17T14:10:09.122Z,12.50
2023-04-17T14:12:36.286Z,12.67
2023-04-17T14:15:03.026Z,12.67
2023-04-17T14:17:29.592Z,12.49
2023-04-17T14:19:59.122Z,12.44
2023-04-17T14:22:25.619Z,12.57
2023-04-17T14:24:52.107Z,12.59
2023-04-17T14:27:18.572Z,12.54
2023-04-17T14:29:47.487Z,12.37
2023-04-17T14:32:13.925Z,12.29
2023-04-17T14:34:40.404Z,12.31
2023-04-17T14:37:06.882Z,12.51
2023-04-17T14:39:33.389Z,12.52
2023-04-17T14:42:01.912Z,12.49
2023-04-17T14:44:28.874Z,12.48
2023-04-17T14:46:56.801Z,12.67
2023-04-17T14:49:26.717Z,12.70
2023-04-17T14:51:53.264Z,12.72
2023-04-17T14:54:19.732Z,12.65
2023-04-17T14:56:46.255Z,12.63
2023-04-17T14:59:12.921Z,12.61
2023-04-17T15:01:39.611Z,12.62
2023-04-17T15:04:06.710Z,12.57
2023-04-17T15:06:33.464Z,12.51
2023-04-17T15:08:59.897Z,12.49
2023-04-17T15:11:26.447Z,12.58
2023-04-17T15:13:52.888Z,12.61
2023-04-17T15:16:22.267Z,12.63
2023-04-17T15:18:48.916Z,12.49
2023-04-17T15:21:16.349Z,12.44
2023-04-17T15:23:42.810Z,12.45
2023-04-17T15:26:09.320Z,12.44
2023-04-17T15:28:36.883Z,12.42
2023-04-17T15:31:03.494Z,12.38
2023-04-17T15:33:30.140Z,12.38
2023-04-17T15:35:58.442Z,12.32
2023-04-17T15:38:25.817Z,12.27
2023-04-17T15:40:52.766Z,12.32
2023-04-17T15:43:20.004Z,12.22
2023-04-17T15:45:48.694Z,12.12
2023-04-17T15:48:15.834Z,11.97
2023-04-17T15:50:42.430Z,11.94
2023-04-17T15:53:09.820Z,11.87
2023-04-17T15:55:36.771Z,11.83
2023-04-17T15:58:03.475Z,11.84
2023-04-17T16:00:30.023Z,11.86
2023-04-17T16:02:56.557Z,11.94
2023-04-17T16:05:23.069Z,12.20
2023-04-17T16:07:50.027Z,12.26
2023-04-17T16:10:16.971Z,12.32
2023-04-17T16:12:45.013Z,12.34
2023-04-17T16:15:16.286Z,12.37
2023-04-17T16:17:43.397Z,12.31
2023-04-17T16:20:13.269Z,12.23
2023-04-17T16:22:40.203Z,12.19
2023-04-17T16:25:09.983Z,12.17
2023-04-17T16:27:37.060Z,12.16
2023-04-17T16:30:05.045Z,12.11
2023-04-17T16:32:31.945Z,12.12
2023-04-17T16:34:58.790Z,12.14
2023-04-17T16:37:25.604Z,12.14
2023-04-17T16:39:52.274Z,12.13
2023-04-17T16:42:18.845Z,11.98
2023-04-17T16:44:48.807Z,11.94
2023-04-17T16:47:15.411Z,11.91
2023-04-17T16:49:42.613Z,11.88
2023-04-17T16:52:09.657Z,11.91
2023-04-17T16:54:36.104Z,11.84
2023-04-17T16:57:02.673Z,11.87
2023-04-17T16:59:29.111Z,11.88
2023-04-17T17:01:55.669Z,11.88
2023-04-17T17:04:22.263Z,11.88
2023-04-17T17:06:48.815Z,11.81
2023-04-17T17:09:15.559Z,11.81
2023-04-17T17:11:45.211Z,11.78
2023-04-17T17:14:11.755Z,11.73
2023-04-17T17:16:40.627Z,11.77
2023-04-17T17:19:07.183Z,11.73
2023-04-17T17:21:33.672Z,11.67
2023-04-17T17:24:00.931Z,11.66
2023-04-17T17:26:27.405Z,11.55
2023-04-17T17:28:55.366Z,11.52
2023-04-17T17:31:21.958Z,11.43
2023-04-17T17:33:50.182Z,11.37
2023-04-17T17:36:16.989Z,11.30
2023-04-17T17:38:44.000Z,11.19
2023-04-17T17:41:10.650Z,11.13
2023-04-17T17:43:38.925Z,11.03
2023-04-17T17:46:05.543Z,10.95
2023-04-17T17:48:34.079Z,10.92
2023-04-17T17:51:00.531Z,10.83
2023-04-17T17:53:27.320Z,10.75
2023-04-17T17:55:55.978Z,10.64
2023-04-17T17:58:23.305Z,10.54
2023-04-17T18:00:53.378Z,10.54
2023-04-17T18:03:20.722Z,10.46
2023-04-17T18:05:47.611Z,10.41
2023-04-17T18:08:14.474Z,10.37
2023-04-17T18:10:40.996Z,10.43
2023-04-17T18:13:07.508Z,10.40
2023-04-17T18:15:34.106Z,10.41
2023-04-17T18:18:00.749Z,10.36
2023-04-17T18:20:27.378Z,10.30
2023-04-17T18:22:53.965Z,10.29
2023-04-17T18:25:20.626Z,10.23
2023-04-17T18:27:47.081Z,10.28
2023-04-17T18:30:14.253Z,10.30
2023-04-17T18:32:40.752Z,10.21
2023-04-17T18:35:07.736Z,10.11
2023-04-17T18:37:34.207Z,10.06
2023-04-17T18:40:00.745Z,9.97
2023-04-17T18:42:27.179Z,9.87
2023-04-17T18:44:53.661Z,9.79
2023-04-17T18:47:20.359Z,9.74
2023-04-17T18:49:47.010Z,9.64
2023-04-17T18:52:13.508Z,9.56
2023-04-17T18:54:40.035Z,9.49
2023-04-17T18:57:06.582Z,9.46
2023-04-17T18:59:33.136Z,9.40
2023-04-17T19:01:59.592Z,9.38
2023-04-17T19:04:26.752Z,9.40
2023-04-17T19:06:53.217Z,9.40
2023-04-17T19:09:19.780Z,9.30
2023-04-17T19:11:46.634Z,9.25
2023-04-17T19:14:13.385Z,9.22
2023-04-17T19:16:40.176Z,9.16
2023-04-17T19:19:08.280Z,9.12
2023-04-17T19:21:34.800Z,8.98
2023-04-17T19:24:01.254Z,8.97
2023-04-17T19:26:27.760Z,8.99
2023-04-17T19:28:55.051Z,8.88
2023-04-17T19:31:21.891Z,8.86
2023-04-17T19:33:48.384Z,8.87
2023-04-17T19:36:14.930Z,8.88
2023-04-17T19:38:41.397Z,8.74
2023-04-17T19:41:17.277Z,8.69
2023-04-17T19:43:49.715Z,8.62
2023-04-17T19:46:17.065Z,8.64
2023-04-17T19:48:45.301Z,8.59
2023-04-17T19:51:15.953Z,8.49
2023-04-17T19:53:43.633Z,8.46
2023-04-17T19:56:10.837Z,8.46
2023-04-17T19:58:38.181Z,8.43
2023-04-17T20:01:05.281Z,8.43
2023-04-17T20:03:32.466Z,8.30
2023-04-17T20:06:00.129Z,8.29
2023-04-17T20:08:26.740Z,8.27
2023-04-17T20:10:56.384Z,8.19
2023-04-17T20:13:22.845Z,8.11
2023-04-17T20:15:49.460Z,8.16
2023-04-17T20:18:18.844Z,8.22
2023-04-17T20:20:45.436Z,8.21
2023-04-17T20:23:12.216Z,8.10
2023-04-17T20:25:38.718Z,8.02
2023-04-17T20:28:09.627Z,7.97
2023-04-17T20:30:41.579Z,7.95
2023-04-17T20:33:11.100Z,7.89
2023-04-17T20:35:37.659Z,7.99
2023-04-17T20:38:04.533Z,7.89
2023-04-17T20:40:31.031Z,7.95
2023-04-17T20:42:57.491Z,7.95
2023-04-17T20:45:23.970Z,7.85
2023-04-17T20:50:24.080Z,7.85
2023-04-17T20:52:50.712Z,7.83
2023-04-17T20:55:19.569Z,7.90
2023-04-17T20:57:46.381Z,7.89
2023-04-17T21:00:13.337Z,7.88
2023-04-17T21:02:40.007Z,7.85
2023-04-17T21:05:09.621Z,7.84
2023-04-17T21:07:36.597Z,7.87
2023-04-17T21:10:03.601Z,7.78
2023-04-17T21:12:32.725Z,7.81
2023-04-17T21:15:01.955Z,7.81
2023-04-17T21:17:28.583Z,7.81
2023-04-17T21:19:56.230Z,7.81
2023-04-17T21:22:22.841Z,7.79
2023-04-17T21:24:49.465Z,7.83
2023-04-17T21:27:16.202Z,7.81
2023-04-17T21:29:43.184Z,7.85
2023-04-17T21:32:12.437Z,7.86
2023-04-17T21:34:39.146Z,7.83
2023-04-17T21:37:05.614Z,7.81
2023-04-17T21:39:33.327Z,7.83
2023-04-17T21:42:00.222Z,7.81
2023-04-17T21:44:26.706Z,7.79
2023-04-17T21:46:53.330Z,7.71
2023-04-17T21:49:28.295Z,7.69
2023-04-17T21:52:02.583Z,7.72
2023-04-17T21:54:29.051Z,7.73
2023-04-17T21:56:55.683Z,7.66
2023-04-17T21:59:22.160Z,7.69
2023-04-17T22:01:48.667Z,7.65
2023-04-17T22:04:15.281Z,7.66
2023-04-17T22:06:44.492Z,7.66
2023-04-17T22:09:12.480Z,7.56
2023-04-17T22:11:48.450Z,7.60
2023-04-17T22:14:16.529Z,7.61
2023-04-17T22:16:43.593Z,7.60
2023-04-17T22:19:13.468Z,7.46
2023-04-17T22:21:40.188Z,7.57
2023-04-17T22:24:10.687Z,7.57
2023-04-17T22:26:43.702Z,7.55
2023-04-17T22:29:10.173Z,7.45
2023-04-17T22:31:36.793Z,7.47
2023-04-17T22:34:03.652Z,7.44
2023-04-17T22:36:36.069Z,7.41
2023-04-17T22:39:02.636Z,7.40
2023-04-17T22:41:32.324Z,7.43
2023-04-17T22:43:58.811Z,7.40
2023-04-17T22:46:25.289Z,7.40
2023-04-17T22:48:51.802Z,7.41
2023-04-17T22:51:18.250Z,7.32
2023-04-17T22:53:44.732Z,7.30
2023-04-17T22:56:12.871Z,7.23
2023-04-17T22:58:39.363Z,7.23
2023-04-17T23:01:09.155Z,7.27
2023-04-17T23:03:35.745Z,7.25
2023-04-17T23:06:03.086Z,7.20
2023-04-17T23:08:32.591Z,7.21
2023-04-17T23:11:00.780Z,7.16
2023-04-17T23:13:28.164Z,7.09
2023-04-17T23:15:54.836Z,7.14
2023-04-17T23:18:21.428Z,7.20
2023-04-17T23:20:47.949Z,7.15
2023-04-17T23:23:18.425Z,7.15
2023-04-17T23:25:46.093Z,7.16
2023-04-17T23:28:12.642Z,7.15
2023-04-17T23:30:39.183Z,7.16
2023-04-17T23:33:05.739Z,7.15
2023-04-17T23:35:32.242Z,7.10
2023-04-17T23:37:58.707Z,7.07
2023-04-17T23:40:26.290Z,7.06
2023-04-17T23:42:53.070Z,7.08
2023-04-17T23:45:22.857Z,7.12
2023-04-17T23:47:49.433Z,7.11
2023-04-17T23:50:16.017Z,7.11
2023-04-17T23:52:42.503Z,7.07
2023-04-17T23:55:09.265Z,7.12
2023-04-17T23:57:37.736Z,7.09
